createdAt,value
2023-10-17T00:01:20.380Z,3.28
2023-10-17T00:03:48.606Z,3.97
2023-10-17T00:06:35.626Z,4.07
2023-10-17T00:09:07.066Z,5.30
2023-10-17T00:12:02.051Z,3.35
2023-10-17T00:14:36.480Z,5.28
2023-10-17T00:17:05.590Z,4.20
2023-10-17T00:19:34.013Z,4.20
2023-10-17T00:22:04.861Z,4.85
2023-10-17T00:24:32.980Z,6.20
2023-10-17T00:27:01.121Z,4.35
2023-10-17T00:29:29.040Z,3.92
2023-10-17T00:31:57.324Z,5.45
2023-10-17T00:34:26.530Z,3.55
2023-10-17T00:37:02.248Z,4.10
2023-10-17T00:39:33.703Z,3.85
2023-10-17T00:42:06.007Z,4.18
2023-10-17T00:44:41.025Z,4.53
2023-10-17T00:47:13.109Z,3.85
2023-10-17T00:49:42.721Z,4.93
2023-10-17T00:52:25.697Z,4.03
2023-10-17T00:54:58.461Z,4.72
2023-10-17T00:57:30.190Z,4.55
2023-10-17T00:59:59.109Z,5.78
2023-10-17T01:02:33.197Z,5.32
2023-10-17T01:05:01.397Z,4.72
2023-10-17T01:07:32.679Z,5.55
2023-10-17T01:10:15.605Z,7.85
2023-10-17T01:13:08.954Z,4.70
2023-10-17T01:15:39.942Z,5.03
2023-10-17T01:18:08.083Z,6.18
2023-10-17T01:20:37.006Z,9.88
2023-10-17T01:23:05.813Z,4.20
2023-10-17T01:25:52.420Z,6.72
2023-10-17T01:28:30.308Z,6.35
2023-10-17T01:31:02.586Z,5.50
2023-10-17T01:33:32.249Z,5.28
2023-10-17T01:36:06.077Z,4.95
2023-10-17T01:38:34.052Z,7.47
2023-10-17T01:41:02.025Z,5.45
2023-10-17T01:43:38.716Z,8.65
2023-10-17T01:46:07.384Z,6.82
2023-10-17T01:48:36.523Z,5.57
2023-10-17T01:51:14.117Z,6.30
2023-10-17T01:53:44.921Z,6.70
2023-10-17T01:56:16.555Z,6.15
2023-10-17T01:58:51.295Z,7.18
2023-10-17T02:01:26.498Z,5.82
2023-10-17T02:03:59.070Z,4.80
2023-10-17T02:06:27.902Z,8.13
2023-10-17T02:09:00.029Z,13.35
2023-10-17T02:11:27.845Z,6.82
2023-10-17T02:13:58.006Z,6.05
2023-10-17T02:16:30.029Z,8.13
2023-10-17T02:18:58.548Z,6.22
2023-10-17T02:21:28.938Z,8.50
2023-10-17T02:23:57.107Z,7.03
2023-10-17T02:26:29.918Z,6.72
2023-10-17T02:29:05.895Z,7.35
2023-10-17T02:31:34.743Z,8.38
2023-10-17T02:34:02.676Z,6.50
2023-10-17T02:36:30.906Z,7.80
2023-10-17T02:38:58.854Z,8.02
2023-10-17T02:41:26.648Z,6.43
2023-10-17T02:43:57.905Z,6.95
2023-10-17T02:46:30.008Z,8.55
2023-10-17T02:48:58.922Z,7.45
2023-10-17T02:51:26.838Z,10.93
2023-10-17T02:53:59.686Z,5.90
2023-10-17T02:56:28.062Z,9.10
2023-10-17T02:59:18.919Z,6.38
2023-10-17T03:01:54.298Z,6.57
2023-10-17T03:04:25.446Z,8.52
2023-10-17T03:06:55.514Z,6.53
2023-10-17T03:09:25.179Z,6.63
2023-10-17T03:11:58.193Z,6.13
2023-10-17T03:14:55.357Z,5.35
2023-10-17T03:17:23.260Z,5.13
2023-10-17T03:19:51.315Z,4.93
2023-10-17T03:22:25.915Z,5.18
2023-10-17T03:25:19.500Z,5.40
2023-10-17T03:27:51.114Z,5.57
2023-10-17T03:30:21.955Z,5.18
2023-10-17T03:32:59.815Z,4.80
2023-10-17T03:35:30.618Z,5.10
2023-10-17T03:37:58.530Z,4.32
2023-10-17T03:40:36.493Z,4.25
2023-10-17T03:43:13.686Z,3.90
2023-10-17T03:45:45.748Z,4.60
2023-10-17T03:48:16.826Z,3.83
2023-10-17T03:50:44.817Z,6.10
2023-10-17T03:53:16.866Z,6.28
2023-10-17T03:55:50.023Z,4.80
2023-10-17T03:58:25.725Z,6.93
2023-10-17T04:00:58.522Z,4.28
2023-10-17T04:03:28.342Z,5.18
2023-10-17T04:06:09.045Z,5.20
2023-10-17T04:08:50.070Z,5.75
2023-10-17T04:11:27.620Z,4.53
2023-10-17T04:14:02.554Z,7.10
2023-10-17T04:16:36.548Z,3.50
2023-10-17T04:19:18.348Z,5.18
2023-10-17T04:22:10.147Z,4.55
2023-10-17T04:24:50.636Z,5.15
2023-10-17T04:27:19.162Z,6.90
2023-10-17T04:29:57.949Z,6.95
2023-10-17T04:32:31.046Z,7.63
2023-10-17T04:34:59.172Z,7.72
2023-10-17T04:37:33.873Z,6.25
2023-10-17T04:40:31.387Z,5.75
2023-10-17T04:43:19.088Z,5.55
2023-10-17T04:45:56.386Z,4.50
2023-10-17T04:48:42.221Z,4.32
2023-10-17T04:51:19.357Z,3.50
2023-10-17T04:53:51.346Z,3.92
2023-10-17T04:56:24.339Z,4.38
2023-10-17T04:58:57.464Z,5.20
2023-10-17T05:01:41.134Z,6.75
2023-10-17T05:04:18.367Z,6.22
2023-10-17T05:07:13.561Z,7.47
2023-10-17T05:09:41.438Z,5.35
2023-10-17T05:12:29.703Z,6.05
2023-10-17T05:15:16.562Z,4.22
2023-10-17T05:18:03.526Z,5.15
2023-10-17T05:20:50.005Z,6.07
2023-10-17T05:23:36.809Z,4.57
2023-10-17T05:26:25.401Z,29.90
2023-10-17T05:29:13.157Z,32.70
2023-10-17T05:32:02.572Z,24.00
2023-10-17T05:34:52.125Z,19.88
2023-10-17T05:37:38.772Z,15.88
2023-10-17T05:40:26.228Z,11.68
2023-10-17T05:43:12.836Z,11.85
2023-10-17T05:45:59.614Z,10.43
2023-10-17T05:48:46.284Z,9.55
2023-10-17T05:51:32.954Z,10.67
2023-10-17T05:54:47.362Z,7.93
2023-10-17T05:57:26.397Z,9.88
2023-10-17T06:00:13.006Z,9.83
2023-10-17T06:02:59.544Z,8.70
2023-10-17T06:05:46.300Z,6.80
2023-10-17T06:08:32.832Z,8.07
2023-10-17T06:11:19.486Z,9.17
2023-10-17T06:14:25.865Z,9.60
2023-10-17T06:16:53.922Z,13.23
2023-10-17T06:19:22.989Z,9.18
2023-10-17T06:22:03.586Z,7.82
2023-10-17T06:24:47.460Z,7.03
2023-10-17T06:27:35.767Z,7.85
2023-10-17T06:30:27.543Z,7.97
2023-10-17T06:33:07.436Z,10.20
2023-10-17T06:35:38.884Z,8.65
2023-10-17T06:38:07.130Z,8.05
2023-10-17T06:40:39.646Z,6.60
2023-10-17T06:43:30.704Z,7.30
2023-10-17T06:46:13.478Z,6.93
2023-10-17T06:48:51.237Z,6.50
2023-10-17T06:51:22.504Z,9.80
2023-10-17T06:53:53.298Z,8.85
2023-10-17T06:56:21.331Z,12.57
2023-10-17T06:58:50.061Z,8.35
2023-10-17T07:01:29.218Z,8.80
2023-10-17T07:03:57.345Z,9.65
2023-10-17T07:06:28.838Z,8.23
2023-10-17T07:08:57.705Z,7.57
2023-10-17T07:11:28.299Z,7.40
2023-10-17T07:14:08.382Z,9.82
2023-10-17T07:16:47.406Z,6.65
2023-10-17T07:19:24.409Z,8.02
2023-10-17T07:22:00.879Z,7.80
2023-10-17T07:24:34.817Z,9.00
2023-10-17T07:27:05.250Z,11.00
2023-10-17T07:29:37.666Z,9.88
2023-10-17T07:32:17.689Z,7.97
2023-10-17T07:34:45.997Z,9.10
2023-10-17T07:37:14.301Z,8.57
2023-10-17T07:39:42.429Z,10.10
2023-10-17T07:42:30.730Z,8.00
2023-10-17T07:45:04.162Z,8.55
2023-10-17T07:47:35.473Z,11.00
2023-10-17T07:50:03.763Z,7.38
2023-10-17T07:52:32.518Z,9.55
2023-10-17T07:55:00.691Z,11.07
2023-10-17T07:57:41.753Z,9.93
2023-10-17T08:00:30.317Z,8.50
2023-10-17T08:03:16.849Z,8.27
2023-10-17T08:06:14.519Z,7.53
2023-10-17T08:08:45.570Z,7.35
2023-10-17T08:11:28.996Z,5.63
2023-10-17T08:13:59.475Z,7.95
2023-10-17T08:16:30.767Z,5.68
2023-10-17T08:19:14.982Z,6.47
2023-10-17T08:21:50.599Z,8.18
2023-10-17T08:24:47.798Z,6.32
2023-10-17T08:27:21.672Z,9.07
2023-10-17T08:29:51.295Z,10.18
2023-10-17T08:32:23.024Z,10.85
2023-10-17T08:35:12.831Z,11.68
2023-10-17T08:37:53.678Z,14.65
2023-10-17T08:40:41.271Z,14.13
2023-10-17T08:43:18.335Z,12.18
2023-10-17T08:45:55.775Z,10.52
2023-10-17T08:48:24.122Z,14.38
2023-10-17T08:50:56.636Z,13.93
2023-10-17T08:53:25.302Z,12.65
2023-10-17T08:55:53.745Z,13.93
2023-10-17T08:58:38.006Z,12.13
2023-10-17T09:01:11.827Z,8.75
2023-10-17T09:03:48.310Z,9.32
2023-10-17T09:06:16.626Z,9.38
2023-10-17T09:08:50.798Z,10.35
2023-10-17T09:11:31.140Z,7.32
2023-10-17T09:14:16.657Z,6.82
2023-10-17T09:17:17.256Z,6.95
2023-10-17T09:19:47.811Z,6.35
2023-10-17T09:22:16.872Z,7.22
2023-10-17T09:24:51.623Z,6.10
2023-10-17T09:27:20.776Z,6.38
2023-10-17T09:29:50.788Z,5.30
2023-10-17T09:32:34.349Z,6.60
2023-10-17T09:35:15.312Z,6.35
2023-10-17T09:37:54.115Z,6.57
2023-10-17T09:40:31.330Z,6.22
2023-10-17T09:43:00.724Z,6.65
2023-10-17T09:45:36.136Z,7.88
2023-10-17T09:48:08.460Z,4.35
2023-10-17T09:50:39.207Z,5.32
2023-10-17T09:53:15.004Z,7.03
2023-10-17T09:55:50.740Z,7.90
2023-10-17T09:58:25.293Z,6.78
2023-10-17T10:00:56.377Z,5.45
2023-10-17T10:03:26.258Z,6.55
2023-10-17T10:05:55.258Z,5.70
2023-10-17T10:08:36.175Z,8.68
2023-10-17T10:11:10.120Z,7.25
2023-10-17T10:14:04.666Z,6.20
2023-10-17T10:16:56.625Z,6.90
2023-10-17T10:19:47.644Z,5.32
2023-10-17T10:22:16.971Z,6.70
2023-10-17T10:24:47.414Z,6.80
2023-10-17T10:27:26.141Z,6.13
2023-10-17T10:29:55.979Z,5.18
2023-10-17T10:32:27.136Z,7.75
2023-10-17T10:34:55.604Z,8.15
2023-10-17T10:37:23.904Z,8.18
2023-10-17T10:40:24.155Z,5.20
2023-10-17T10:43:00.606Z,8.40
2023-10-17T10:45:48.202Z,9.82
2023-10-17T10:48:18.700Z,8.27
2023-10-17T10:50:50.940Z,7.10
2023-10-17T10:53:29.921Z,5.47
2023-10-17T10:56:01.046Z,5.10
2023-10-17T10:58:34.904Z,6.45
2023-10-17T11:01:07.375Z,5.63
2023-10-17T11:03:41.509Z,4.03
2023-10-17T11:06:09.915Z,6.50
2023-10-17T11:08:49.082Z,6.22
2023-10-17T11:11:18.488Z,7.07
2023-10-17T11:13:49.136Z,6.90
2023-10-17T11:16:20.014Z,5.85
2023-10-17T11:18:49.409Z,6.68
2023-10-17T11:21:22.107Z,6.90
2023-10-17T11:23:56.633Z,6.88
2023-10-17T11:26:29.556Z,7.40
2023-10-17T11:28:59.908Z,7.35
2023-10-17T11:31:28.467Z,6.72
2023-10-17T11:34:01.149Z,6.05
2023-10-17T11:36:38.208Z,7.10
2023-10-17T11:39:07.342Z,7.78
2023-10-17T11:41:56.076Z,7.15
2023-10-17T11:44:26.480Z,6.05
2023-10-17T11:47:17.959Z,8.50
2023-10-17T11:49:48.955Z,4.90
2023-10-17T11:52:17.213Z,7.15
2023-10-17T11:55:05.685Z,17.58
2023-10-17T11:57:34.399Z,49.15
2023-10-17T12:00:10.362Z,46.53
2023-10-17T12:02:43.835Z,26.80
2023-10-17T12:05:22.482Z,21.10
2023-10-17T12:07:55.810Z,15.52
2023-10-17T12:10:28.406Z,9.75
2023-10-17T12:13:06.672Z,9.18
2023-10-17T12:15:34.840Z,9.80
2023-10-17T12:18:02.842Z,11.15
2023-10-17T12:20:30.840Z,14.35
2023-10-17T12:23:00.870Z,12.82
2023-10-17T12:25:30.763Z,12.15
2023-10-17T12:27:58.837Z,8.90
2023-10-17T12:30:30.169Z,8.77
2023-10-17T12:32:59.009Z,10.32
2023-10-17T12:35:29.776Z,13.52
2023-10-17T12:38:07.892Z,11.18
2023-10-17T12:40:35.801Z,10.77
2023-10-17T12:43:03.776Z,12.95
2023-10-17T12:45:31.763Z,11.75
2023-10-17T12:48:00.391Z,10.90
2023-10-17T12:50:28.963Z,10.88
2023-10-17T12:52:57.222Z,9.77
2023-10-17T12:55:25.108Z,9.48
2023-10-17T12:57:53.847Z,8.35
2023-10-17T13:00:27.722Z,7.78
2023-10-17T13:02:57.474Z,9.15
2023-10-17T13:05:27.604Z,7.40
2023-10-17T13:07:56.216Z,7.30
2023-10-17T13:10:24.347Z,8.65
2023-10-17T13:12:52.398Z,8.15
2023-10-17T13:15:20.973Z,9.10
2023-10-17T13:17:53.980Z,7.60
2023-10-17T13:20:43.263Z,6.38
2023-10-17T13:23:21.885Z,7.45
2023-10-17T13:25:49.877Z,7.05
2023-10-17T13:28:17.849Z,7.68
2023-10-17T13:30:46.084Z,5.45
2023-10-17T13:33:14.050Z,6.05
2023-10-17T13:35:42.503Z,6.03
2023-10-17T13:38:11.188Z,7.72
2023-10-17T13:40:40.245Z,8.65
2023-10-17T13:43:08.494Z,7.60
2023-10-17T13:45:43.229Z,6.28
2023-10-17T13:48:13.201Z,6.90
2023-10-17T13:50:41.424Z,8.55
2023-10-17T13:53:11.048Z,9.10
2023-10-17T13:55:42.837Z,6.35
2023-10-17T13:58:13.082Z,7.57
2023-10-17T14:00:55.821Z,7.30
2023-10-17T14:03:27.018Z,8.32
2023-10-17T14:05:55.707Z,6.00
2023-10-17T14:08:23.976Z,5.50
2023-10-17T14:10:52.309Z,8.18
2023-10-17T14:13:22.024Z,7.50
2023-10-17T14:15:53.440Z,6.75
2023-10-17T14:18:31.149Z,6.68
2023-10-17T14:21:25.287Z,7.88
2023-10-17T14:23:59.461Z,6.78
2023-10-17T14:26:39.703Z,8.40
2023-10-17T14:29:08.813Z,5.32
2023-10-17T14:31:37.829Z,6.65
2023-10-17T14:34:10.692Z,9.57
2023-10-17T14:36:39.103Z,6.13
2023-10-17T14:39:11.128Z,5.38
2023-10-17T14:41:41.690Z,7.07
2023-10-17T14:44:09.977Z,6.20
2023-10-17T14:46:38.635Z,6.13
2023-10-17T14:49:07.157Z,7.53
2023-10-17T14:51:35.267Z,6.75
2023-10-17T14:54:09.536Z,8.88
2023-10-17T14:56:37.810Z,6.43
2023-10-17T14:59:06.933Z,6.00
2023-10-17T15:01:36.729Z,6.43
2023-10-17T15:04:05.763Z,8.95
2023-10-17T15:06:34.026Z,7.55
2023-10-17T15:09:02.134Z,9.70
2023-10-17T15:11:30.459Z,5.68
2023-10-17T15:13:58.727Z,6.72
2023-10-17T15:16:27.045Z,7.03
2023-10-17T15:18:56.266Z,6.28
2023-10-17T15:21:25.040Z,7.80
2023-10-17T15:23:53.316Z,6.45
2023-10-17T15:26:23.136Z,5.85
2023-10-17T15:28:51.947Z,5.63
2023-10-17T15:31:20.400Z,7.55
2023-10-17T15:33:48.681Z,6.88
2023-10-17T15:36:22.374Z,5.72
2023-10-17T15:38:50.713Z,7.38
2023-10-17T15:41:18.949Z,8.60
2023-10-17T15:43:47.182Z,6.30
2023-10-17T15:46:17.088Z,9.77
2023-10-17T15:48:45.688Z,6.45
2023-10-17T15:51:21.082Z,8.00
2023-10-17T15:53:49.371Z,8.73
2023-10-17T15:56:17.522Z,6.85
2023-10-17T15:58:46.408Z,8.15
2023-10-17T16:01:15.051Z,6.75
2023-10-17T16:03:48.301Z,6.78
2023-10-17T16:06:17.201Z,8.15
2023-10-17T16:08:47.066Z,9.10
2023-10-17T16:11:17.530Z,6.10
2023-10-17T16:13:45.986Z,8.55
2023-10-17T16:16:17.557Z,6.55
2023-10-17T16:18:47.270Z,8.00
2023-10-17T16:21:16.882Z,7.82
2023-10-17T16:23:49.217Z,7.57
2023-10-17T16:26:21.512Z,6.50
2023-10-17T16:28:49.737Z,7.32
2023-10-17T16:31:17.847Z,7.53
2023-10-17T16:33:45.978Z,8.93
2023-10-17T16:36:15.541Z,6.63
2023-10-17T16:38:47.617Z,5.60
2023-10-17T16:41:16.106Z,6.85
2023-10-17T16:43:44.211Z,6.75
2023-10-17T16:46:13.246Z,9.27
2023-10-17T16:48:42.452Z,6.40
2023-10-17T16:51:10.717Z,6.30
2023-10-17T16:53:39.953Z,7.28
2023-10-17T16:56:08.156Z,8.23
2023-10-17T16:58:39.348Z,8.18
2023-10-17T17:01:08.445Z,8.80
2023-10-17T17:03:37.312Z,11.35
2023-10-17T17:06:09.758Z,7.32
2023-10-17T17:08:38.631Z,9.15
2023-10-17T17:11:07.102Z,8.10
2023-10-17T17:13:37.971Z,8.55
2023-10-17T17:16:08.764Z,7.30
2023-10-17T17:18:47.369Z,7.70
2023-10-17T17:21:18.496Z,5.63
2023-10-17T17:23:47.283Z,8.13
2023-10-17T17:26:17.074Z,7.68
2023-10-17T17:28:45.389Z,8.95
2023-10-17T17:31:13.532Z,10.93
2023-10-17T17:33:41.945Z,10.45
2023-10-17T17:36:09.976Z,7.80
2023-10-17T17:38:41.195Z,7.10
2023-10-17T17:41:09.348Z,8.10
2023-10-17T17:43:37.564Z,7.53
2023-10-17T17:46:06.617Z,7.55
2023-10-17T17:48:36.042Z,12.60
2023-10-17T17:51:05.149Z,7.38
2023-10-17T17:53:33.718Z,10.65
2023-10-17T17:56:02.457Z,11.70
2023-10-17T17:58:30.571Z,15.93
2023-10-17T18:00:59.672Z,16.17
2023-10-17T18:03:29.009Z,16.98
2023-10-17T18:05:57.384Z,21.33
2023-10-17T18:08:27.565Z,17.60
2023-10-17T18:10:57.122Z,13.93
2023-10-17T18:13:25.192Z,11.38
2023-10-17T18:15:55.044Z,14.38
2023-10-17T18:18:24.143Z,15.88
2023-10-17T18:21:12.795Z,12.75
2023-10-17T18:23:49.154Z,12.43
2023-10-17T18:26:22.309Z,13.27
2023-10-17T18:28:54.651Z,12.48
2023-10-17T18:31:22.724Z,10.48
2023-10-17T18:33:50.873Z,10.02
2023-10-17T18:36:19.740Z,10.05
2023-10-17T18:38:48.124Z,10.75
2023-10-17T18:41:16.096Z,9.48
2023-10-17T18:43:47.236Z,9.73
2023-10-17T18:46:20.357Z,10.93
2023-10-17T18:48:48.791Z,9.00
2023-10-17T18:51:16.706Z,9.85
2023-10-17T18:53:46.154Z,9.77
2023-10-17T18:56:15.180Z,9.70
2023-10-17T18:58:43.249Z,11.13
2023-10-17T19:01:15.837Z,11.45
2023-10-17T19:03:46.035Z,12.13
2023-10-17T19:06:14.981Z,13.25
2023-10-17T19:08:43.966Z,9.80
2023-10-17T19:11:13.554Z,13.57
2023-10-17T19:13:42.476Z,14.15
2023-10-17T19:16:11.900Z,13.27
2023-10-17T19:18:42.469Z,13.40
2023-10-17T19:21:13.827Z,9.15
2023-10-17T19:23:45.345Z,11.85
2023-10-17T19:26:14.902Z,10.50
2023-10-17T19:28:46.837Z,11.10
2023-10-17T19:31:20.572Z,10.68
2023-10-17T19:33:48.943Z,10.88
2023-10-17T19:36:17.090Z,10.88
2023-10-17T19:38:45.421Z,12.25
2023-10-17T19:41:14.860Z,13.13
2023-10-17T19:43:42.853Z,13.60
2023-10-17T19:46:12.110Z,12.52
2023-10-17T19:48:40.757Z,11.68
2023-10-17T19:51:08.989Z,11.07
2023-10-17T19:53:40.116Z,8.93
2023-10-17T19:56:09.442Z,9.48
2023-10-17T19:58:37.893Z,12.77
2023-10-17T20:01:09.867Z,10.57
2023-10-17T20:03:38.478Z,9.57
2023-10-17T20:06:07.246Z,9.82
2023-10-17T20:08:35.520Z,10.20
2023-10-17T20:11:06.133Z,9.73
2023-10-17T20:13:34.838Z,10.63
2023-10-17T20:16:07.442Z,10.55
2023-10-17T20:18:38.605Z,13.18
2023-10-17T20:21:08.140Z,12.15
2023-10-17T20:23:37.256Z,12.07
2023-10-17T20:26:05.152Z,10.75
2023-10-17T20:28:33.157Z,12.82
2023-10-17T20:31:10.287Z,11.15
2023-10-17T20:33:41.391Z,10.52
2023-10-17T20:36:09.876Z,8.07
2023-10-17T20:38:37.970Z,7.53
2023-10-17T20:41:11.875Z,10.35
2023-10-17T20:43:39.798Z,11.95
2023-10-17T20:46:07.765Z,9.30
2023-10-17T20:48:35.808Z,11.23
2023-10-17T20:51:05.314Z,6.60
2023-10-17T20:53:34.030Z,10.88
2023-10-17T20:56:02.963Z,9.38
2023-10-17T20:58:31.600Z,7.95
2023-10-17T21:01:04.790Z,9.65
2023-10-17T21:03:34.459Z,11.75
2023-10-17T21:06:03.757Z,9.75
2023-10-17T21:08:32.301Z,10.35
2023-10-17T21:11:00.880Z,7.90
2023-10-17T21:13:30.461Z,8.38
2023-10-17T21:16:10.868Z,10.20
2023-10-17T21:18:40.533Z,9.70
2023-10-17T21:21:09.376Z,9.30
2023-10-17T21:23:37.857Z,8.45
2023-10-17T21:26:06.109Z,9.25
2023-10-17T21:28:34.367Z,9.25
2023-10-17T21:31:06.401Z,7.82
2023-10-17T21:33:36.710Z,8.60
2023-10-17T21:36:08.363Z,9.10
2023-10-17T21:38:39.082Z,7.50
2023-10-17T21:41:09.029Z,9.57
2023-10-17T21:43:40.341Z,9.25
2023-10-17T21:46:09.270Z,7.72
2023-10-17T21:48:37.630Z,9.52
2023-10-17T21:51:10.853Z,7.32
2023-10-17T21:53:41.002Z,10.30
2023-10-17T21:56:09.405Z,11.63
2023-10-17T21:58:39.836Z,13.00
2023-10-17T22:01:17.016Z,11.63
2023-10-17T22:03:45.366Z,11.77
2023-10-17T22:06:16.456Z,11.65
2023-10-17T22:08:46.502Z,11.35
2023-10-17T22:11:14.890Z,7.70
2023-10-17T22:13:46.271Z,10.23
2023-10-17T22:16:15.909Z,7.82
2023-10-17T22:18:45.193Z,9.20
2023-10-17T22:21:14.057Z,7.65
2023-10-17T22:23:42.033Z,7.38
2023-10-17T22:26:14.752Z,7.07
2023-10-17T22:28:43.342Z,7.57
2023-10-17T22:31:11.496Z,8.27
2023-10-17T22:33:40.994Z,8.25
2023-10-17T22:36:09.838Z,9.40
2023-10-17T22:38:37.870Z,6.78
2023-10-17T22:41:06.135Z,5.68
2023-10-17T22:43:35.138Z,6.70
2023-10-17T22:46:06.477Z,8.68
2023-10-17T22:48:35.599Z,6.68
2023-10-17T22:51:06.341Z,6.95
2023-10-17T22:53:34.983Z,8.43
2023-10-17T22:56:03.780Z,8.07
2023-10-17T22:58:31.998Z,7.18
2023-10-17T23:01:00.032Z,6.90
2023-10-17T23:03:28.657Z,10.07
2023-10-17T23:05:57.311Z,8.57
2023-10-17T23:08:25.703Z,7.97
2023-10-17T23:10:53.830Z,8.25
2023-10-17T23:13:22.649Z,6.55
2023-10-17T23:15:50.760Z,6.25
2023-10-17T23:18:19.752Z,9.88
2023-10-17T23:20:48.474Z,8.57
2023-10-17T23:23:21.342Z,7.28
2023-10-17T23:25:55.818Z,7.05
2023-10-17T23:28:27.866Z,10.60
2023-10-17T23:30:56.291Z,10.02
2023-10-17T23:33:24.685Z,8.63
2023-10-17T23:35:53.358Z,7.65
2023-10-17T23:38:22.910Z,6.93
2023-10-17T23:40:50.847Z,9.55
2023-10-17T23:43:18.704Z,7.20
2023-10-17T23:45:51.460Z,7.90
2023-10-17T23:48:27.851Z,8.45
2023-10-17T23:50:56.733Z,8.98
2023-10-17T23:53:30.568Z,8.52
2023-10-17T23:56:03.908Z,9.95
2023-10-17T23:58:33.451Z,8.13
